Terminal Aerodrome Forecast
Issued by NWS Shreveport, LA

Home | Current Version | Previous Version | Text Only | Print | Product List | Glossary On
Versions: 1 2 3 4 5 6 7 8 9 10 11 12 13 14 15 16 17 18 19 20
000
FTUS44 KSHV 080535
TAFMLU
TAF
KMLU 080535Z 0806/0906 04007KT P6SM -DZ OVC015
      TEMPO 0808/0812 6SM -RA OVC008
     FM081200 02010KT P6SM VCSH OVC015
     FM081400 01012G18KT P6SM BKN025 OVC150
     FM081800 01012G18KT P6SM BKN060 OVC150
     FM090100 36006KT P6SM BKN150=

USA.gov is the U.S. government's official web portal to all federal, state and local government web resources and services.